createdAt,value
2023-02-17T00:01:15.155Z,6.30
2023-02-17T00:06:19.529Z,6.20
2023-02-17T00:11:22.095Z,6.10
2023-02-17T00:16:27.225Z,6.30
2023-02-17T00:21:32.465Z,6.40
2023-02-17T00:26:34.553Z,6.40
2023-02-17T00:31:38.286Z,6.40
2023-02-17T00:36:41.100Z,6.30
2023-02-17T00:41:44.074Z,6.30
2023-02-17T00:46:48.599Z,6.20
2023-02-17T00:51:51.404Z,6.10
2023-02-17T00:56:53.947Z,6.10
2023-02-17T01:01:57.909Z,6.00
2023-02-17T01:07:00.114Z,6.00
2023-02-17T01:12:02.215Z,6.00
2023-02-17T01:17:05.864Z,6.20
2023-02-17T01:22:07.924Z,6.10
2023-02-17T01:27:10.175Z,6.00
2023-02-17T01:32:13.933Z,6.00
2023-02-17T01:37:16.412Z,5.90
2023-02-17T01:42:21.089Z,5.90
2023-02-17T01:47:24.194Z,5.90
2023-02-17T01:52:28.168Z,6.10
2023-02-17T01:57:34.128Z,6.00
2023-02-17T02:02:37.854Z,5.90
2023-02-17T02:07:42.619Z,6.00
2023-02-17T02:12:45.316Z,6.00
2023-02-17T02:18:04.761Z,5.90
2023-02-17T02:23:29.817Z,5.80
2023-02-17T02:28:49.244Z,5.90
2023-02-17T02:33:58.120Z,5.90
2023-02-17T02:39:04.069Z,6.00
2023-02-17T02:44:07.127Z,6.90
2023-02-17T02:49:11.172Z,6.90
2023-02-17T02:54:28.245Z,6.60
2023-02-17T02:59:42.121Z,6.40
2023-02-17T03:04:52.910Z,6.10
2023-02-17T03:09:57.719Z,6.00
2023-02-17T03:15:03.164Z,6.00
2023-02-17T03:20:08.880Z,6.00
2023-02-17T03:25:11.382Z,6.00
2023-02-17T03:30:14.469Z,6.10
2023-02-17T03:35:18.254Z,6.10
2023-02-17T03:40:20.361Z,6.00
2023-02-17T03:45:22.755Z,6.10
2023-02-17T03:50:26.668Z,6.20
2023-02-17T03:55:28.487Z,6.50
2023-02-17T04:00:30.834Z,6.70
2023-02-17T04:05:34.519Z,6.90
2023-02-17T04:10:36.927Z,6.80
2023-02-17T04:15:39.576Z,6.60
2023-02-17T04:20:42.990Z,6.40
2023-02-17T04:25:45.654Z,6.20
2023-02-17T04:30:49.840Z,6.30
2023-02-17T04:35:53.980Z,6.50
2023-02-17T04:40:57.096Z,6.70
2023-02-17T04:45:59.972Z,7.80
2023-02-17T04:51:03.725Z,8.40
2023-02-17T04:56:06.584Z,8.50
2023-02-17T05:01:08.913Z,8.20
2023-02-17T05:06:12.484Z,7.60
2023-02-17T05:11:14.516Z,7.00
2023-02-17T05:16:17.098Z,6.50
2023-02-17T05:21:20.820Z,6.50
2023-02-17T05:26:23.157Z,6.40
2023-02-17T05:31:25.890Z,6.40
2023-02-17T05:36:30.007Z,6.40
2023-02-17T05:41:32.016Z,6.50
2023-02-17T05:46:35.316Z,6.40
2023-02-17T05:51:38.796Z,6.40
2023-02-17T05:56:40.945Z,6.40
2023-02-17T06:01:43.249Z,6.50
2023-02-17T06:06:47.044Z,6.50
2023-02-17T06:11:49.843Z,6.70
2023-02-17T06:16:51.929Z,6.70
2023-02-17T06:21:56.620Z,6.60
2023-02-17T06:26:58.737Z,6.50
2023-02-17T06:32:00.578Z,6.40
2023-02-17T06:37:04.452Z,6.40
2023-02-17T06:42:06.597Z,6.40
2023-02-17T06:47:09.191Z,6.50
2023-02-17T06:52:12.703Z,7.10
2023-02-17T06:57:15.246Z,7.90
2023-02-17T07:02:17.313Z,8.50
2023-02-17T07:07:21.114Z,8.30
2023-02-17T07:12:23.280Z,8.00
2023-02-17T07:17:26.007Z,7.70
2023-02-17T07:22:29.604Z,7.60
2023-02-17T07:27:31.961Z,7.50
2023-02-17T07:32:34.194Z,7.50
2023-02-17T07:37:37.966Z,7.40
2023-02-17T07:42:40.118Z,7.60
2023-02-17T07:47:42.674Z,7.80
2023-02-17T07:52:46.234Z,8.10
2023-02-17T07:57:48.697Z,8.00
2023-02-17T08:02:50.926Z,8.00
2023-02-17T08:08:14.656Z,7.90
2023-02-17T08:13:22.618Z,8.00
2023-02-17T08:18:24.689Z,8.00
2023-02-17T08:23:30.042Z,8.10
2023-02-17T08:28:32.813Z,8.10
2023-02-17T08:33:35.254Z,8.10
2023-02-17T08:38:39.676Z,8.30
2023-02-17T08:43:42.876Z,8.60
2023-02-17T08:48:45.147Z,8.80
2023-02-17T08:53:48.828Z,9.00
2023-02-17T08:58:51.300Z,8.80
2023-02-17T09:03:55.945Z,8.80
2023-02-17T09:08:59.398Z,8.70
2023-02-17T09:14:02.702Z,8.70
2023-02-17T09:19:05.457Z,8.80
2023-02-17T09:24:09.054Z,8.60
2023-02-17T09:29:11.615Z,8.80
2023-02-17T09:34:13.849Z,9.30
2023-02-17T09:39:17.814Z,9.80
2023-02-17T09:44:26.094Z,9.90
2023-02-17T09:49:33.136Z,9.90
2023-02-17T09:54:45.982Z,10.10
2023-02-17T09:59:53.711Z,10.50
2023-02-17T10:04:58.818Z,10.60
2023-02-17T10:10:08.633Z,11.20
2023-02-17T10:15:17.873Z,11.60
2023-02-17T10:20:25.071Z,12.00
2023-02-17T10:25:46.003Z,12.20
2023-02-17T10:30:58.150Z,11.80
2023-02-17T10:36:12.648Z,11.60
2023-02-17T10:41:22.190Z,11.50
2023-02-17T10:46:30.600Z,11.40
2023-02-17T10:51:33.584Z,11.40
2023-02-17T10:56:44.334Z,11.20
2023-02-17T11:01:46.507Z,11.10
2023-02-17T11:06:52.654Z,11.20
2023-02-17T11:12:01.606Z,11.00
2023-02-17T11:17:14.491Z,11.00
2023-02-17T11:22:35.511Z,11.00
2023-02-17T11:27:39.427Z,10.80
2023-02-17T11:32:41.999Z,10.90
2023-02-17T11:37:44.855Z,11.00
2023-02-17T11:42:57.647Z,11.30
2023-02-17T11:48:23.945Z,11.90
2023-02-17T11:53:41.231Z,12.00
2023-02-17T11:59:08.508Z,12.00
2023-02-17T12:04:27.177Z,12.00
2023-02-17T12:09:35.832Z,12.00
2023-02-17T12:15:02.089Z,12.10
2023-02-17T12:20:13.996Z,12.10
2023-02-17T12:25:39.358Z,12.00
2023-02-17T12:30:56.202Z,11.90
2023-02-17T12:36:02.838Z,11.90
2023-02-17T12:41:09.347Z,11.80
2023-02-17T12:46:16.417Z,11.60
2023-02-17T12:51:23.575Z,11.50
2023-02-17T12:56:51.078Z,11.40
2023-02-17T13:02:00.773Z,11.50
2023-02-17T13:07:27.737Z,11.70
2023-02-17T13:12:41.014Z,11.80
2023-02-17T13:17:54.836Z,11.80
2023-02-17T13:23:08.824Z,11.80
2023-02-17T13:28:35.965Z,11.80
2023-02-17T13:33:48.487Z,11.90
2023-02-17T13:39:01.846Z,12.00
2023-02-17T13:44:29.225Z,12.20
2023-02-17T13:49:35.506Z,12.40
2023-02-17T13:54:37.817Z,12.80
2023-02-17T13:59:40.441Z,13.00
2023-02-17T14:04:45.659Z,12.90
2023-02-17T14:09:54.775Z,12.90
2023-02-17T14:14:57.222Z,12.60
2023-02-17T14:20:01.075Z,12.30
2023-02-17T14:25:05.481Z,12.10
2023-02-17T14:30:13.862Z,12.00
2023-02-17T14:35:25.554Z,11.90
2023-02-17T14:40:28.496Z,11.80
2023-02-17T14:45:31.065Z,11.70
2023-02-17T14:50:42.448Z,11.60
2023-02-17T14:55:49.322Z,11.30
2023-02-17T15:00:52.806Z,11.20
2023-02-17T15:05:57.436Z,11.20
2023-02-17T15:11:00.974Z,11.20
2023-02-17T15:16:04.105Z,11.10
2023-02-17T15:21:25.451Z,11.00
2023-02-17T15:26:29.013Z,11.10
2023-02-17T15:31:36.753Z,11.10
2023-02-17T15:36:41.212Z,11.10
2023-02-17T15:41:45.056Z,11.20
2023-02-17T15:46:49.499Z,11.30
2023-02-17T15:51:57.198Z,11.30
2023-02-17T15:57:01.008Z,11.30
2023-02-17T16:02:04.322Z,11.40
2023-02-17T16:07:09.722Z,11.40
2023-02-17T16:12:17.934Z,11.30
2023-02-17T16:17:21.229Z,11.30
2023-02-17T16:22:25.912Z,11.20
2023-02-17T16:27:28.852Z,11.00
2023-02-17T16:32:34.831Z,10.70
2023-02-17T16:37:42.932Z,10.40
2023-02-17T16:42:46.459Z,10.30
2023-02-17T16:47:51.895Z,10.10
2023-02-17T16:53:00.515Z,10.00
2023-02-17T16:58:05.403Z,10.00
2023-02-17T17:03:11.221Z,9.80
2023-02-17T17:08:19.439Z,9.90
2023-02-17T17:13:23.121Z,9.80
2023-02-17T17:18:27.266Z,9.80
2023-02-17T17:23:32.686Z,9.60
2023-02-17T17:28:36.797Z,9.70
2023-02-17T17:33:40.560Z,10.10
2023-02-17T17:38:46.119Z,10.40
2023-02-17T17:43:51.390Z,10.70
2023-02-17T17:48:55.497Z,10.70
2023-02-17T17:54:05.679Z,10.50
2023-02-17T17:59:09.334Z,10.20
2023-02-17T18:04:12.660Z,10.00
2023-02-17T18:09:31.602Z,9.90
2023-02-17T18:14:38.730Z,9.80
2023-02-17T18:19:42.741Z,9.70
2023-02-17T18:24:48.310Z,9.60
2023-02-17T18:29:52.603Z,9.50
2023-02-17T18:34:58.657Z,9.70
2023-02-17T18:40:04.859Z,9.80
2023-02-17T18:45:09.548Z,10.20
2023-02-17T18:50:15.221Z,10.20
2023-02-17T18:55:20.959Z,10.30
2023-02-17T19:00:31.038Z,10.20
2023-02-17T19:05:35.052Z,9.90
2023-02-17T19:10:40.861Z,9.60
2023-02-17T19:15:44.168Z,9.90
2023-02-17T19:20:47.738Z,10.10
2023-02-17T19:25:52.446Z,10.10
2023-02-17T19:30:58.402Z,9.90
2023-02-17T19:36:02.933Z,9.70
2023-02-17T19:41:10.325Z,9.70
2023-02-17T19:46:16.937Z,10.10
2023-02-17T19:51:20.751Z,10.30
2023-02-17T19:56:30.067Z,11.00
2023-02-17T20:01:36.486Z,11.00
2023-02-17T20:06:44.489Z,10.80
2023-02-17T20:11:53.840Z,10.50
2023-02-17T20:17:01.536Z,10.40
2023-02-17T20:22:08.707Z,10.20
2023-02-17T20:27:13.796Z,9.90
2023-02-17T20:32:18.716Z,9.70
2023-02-17T20:37:23.329Z,9.50
2023-02-17T20:42:31.332Z,9.30
2023-02-17T20:47:34.661Z,9.10
2023-02-17T20:52:40.226Z,8.90
2023-02-17T20:57:46.275Z,9.20
2023-02-17T21:02:52.437Z,10.10
2023-02-17T21:07:58.530Z,10.10
2023-02-17T21:13:08.661Z,10.20
2023-02-17T21:18:11.431Z,10.40
2023-02-17T21:23:14.502Z,10.60
2023-02-17T21:28:19.306Z,10.80
2023-02-17T21:33:22.834Z,10.80
2023-02-17T21:38:27.143Z,10.80
2023-02-17T21:43:49.285Z,10.60
2023-02-17T21:48:53.366Z,10.80
2023-02-17T21:53:56.247Z,10.70
2023-02-17T21:59:00.789Z,10.80
2023-02-17T22:04:03.658Z,10.90
2023-02-17T22:09:08.939Z,10.90
2023-02-17T22:14:17.163Z,10.80
2023-02-17T22:19:21.802Z,10.80
2023-02-17T22:24:27.335Z,10.60
2023-02-17T22:29:31.092Z,10.60
2023-02-17T22:34:32.891Z,10.60
2023-02-17T22:39:35.282Z,10.50
2023-02-17T22:44:39.218Z,10.40
2023-02-17T22:49:41.704Z,10.20
2023-02-17T22:54:44.359Z,10.00
2023-02-17T22:59:48.870Z,10.20
2023-02-17T23:04:51.038Z,10.40
2023-02-17T23:09:53.554Z,10.40
2023-02-17T23:14:56.978Z,10.40
2023-02-17T23:19:59.339Z,10.20
2023-02-17T23:25:02.578Z,10.00
2023-02-17T23:30:08.196Z,9.90
2023-02-17T23:35:12.581Z,9.90
2023-02-17T23:40:16.388Z,9.80
2023-02-17T23:45:20.716Z,9.70
2023-02-17T23:50:22.928Z,9.60
2023-02-17T23:55:25.114Z,9.50
